createdAt,value
2023-08-31T00:01:27.160Z,15.27
2023-08-31T00:04:01.260Z,15.25
2023-08-31T00:06:39.254Z,15.30
2023-08-31T00:09:16.556Z,15.19
2023-08-31T00:11:44.472Z,15.08
2023-08-31T00:14:15.057Z,15.26
2023-08-31T00:16:46.659Z,15.16
2023-08-31T00:19:18.706Z,15.12
2023-08-31T00:21:49.681Z,15.19
2023-08-31T00:24:22.989Z,15.19
2023-08-31T00:26:53.412Z,15.24
2023-08-31T00:29:22.500Z,15.26
2023-08-31T00:32:01.790Z,15.30
2023-08-31T00:34:33.551Z,15.27
2023-08-31T00:37:06.108Z,15.29
2023-08-31T00:39:40.099Z,15.06
2023-08-31T00:42:10.977Z,15.23
2023-08-31T00:44:44.399Z,15.25
2023-08-31T00:47:18.180Z,15.25
2023-08-31T00:49:51.125Z,15.31
2023-08-31T00:52:26.150Z,15.38
2023-08-31T00:54:59.133Z,15.15
2023-08-31T00:57:31.701Z,15.00
2023-08-31T01:00:10.290Z,15.22
2023-08-31T01:03:16.630Z,15.16
2023-08-31T01:06:06.421Z,15.14
2023-08-31T01:09:17.059Z,15.14
2023-08-31T01:12:10.031Z,15.23
2023-08-31T01:14:45.910Z,15.22
2023-08-31T01:17:29.277Z,15.19
2023-08-31T01:20:04.031Z,15.10
2023-08-31T01:23:01.395Z,15.17
2023-08-31T01:25:42.515Z,15.07
2023-08-31T01:28:19.430Z,15.14
2023-08-31T01:30:57.105Z,15.20
2023-08-31T01:33:31.141Z,15.16
2023-08-31T01:36:10.693Z,15.14
2023-08-31T01:39:03.364Z,15.19
2023-08-31T01:41:37.366Z,15.26
2023-08-31T01:44:10.335Z,15.28
2023-08-31T01:46:40.571Z,15.26
2023-08-31T01:49:12.476Z,15.22
2023-08-31T01:51:49.106Z,15.28
2023-08-31T01:54:20.147Z,15.25
2023-08-31T01:56:48.336Z,15.12
2023-08-31T01:59:22.805Z,15.03
2023-08-31T02:01:57.077Z,15.14
2023-08-31T02:04:29.946Z,15.07
2023-08-31T02:07:00.841Z,15.13
2023-08-31T02:09:38.143Z,15.07
2023-08-31T02:12:19.781Z,15.03
2023-08-31T02:14:55.483Z,15.15
2023-08-31T02:17:26.450Z,15.19
2023-08-31T02:20:03.983Z,15.09
2023-08-31T02:22:38.404Z,15.06
2023-08-31T02:25:08.528Z,15.09
2023-08-31T02:27:39.015Z,15.07
2023-08-31T02:30:11.007Z,15.01
2023-08-31T02:32:43.371Z,15.12
2023-08-31T02:35:18.414Z,15.15
2023-08-31T02:40:39.503Z,15.02
2023-08-31T02:43:24.121Z,15.04
2023-08-31T02:45:54.220Z,15.04
2023-08-31T02:48:26.579Z,15.04
2023-08-31T02:50:57.848Z,15.02
2023-08-31T02:53:35.516Z,14.98
2023-08-31T02:56:06.668Z,14.99
2023-08-31T02:58:40.773Z,14.98
2023-08-31T03:01:23.618Z,15.00
2023-08-31T03:03:58.133Z,14.98
2023-08-31T03:06:29.074Z,14.99
2023-08-31T03:09:01.258Z,14.96
2023-08-31T03:11:47.361Z,14.96
2023-08-31T03:14:15.083Z,14.93
2023-08-31T03:16:47.108Z,14.96
2023-08-31T03:19:17.563Z,14.96
2023-08-31T03:21:50.427Z,14.96
2023-08-31T03:24:20.835Z,14.98
2023-08-31T03:26:54.373Z,14.92
2023-08-31T03:29:36.979Z,14.88
2023-08-31T03:32:09.784Z,14.85
2023-08-31T03:34:40.442Z,14.77
2023-08-31T03:37:12.481Z,14.77
2023-08-31T03:39:44.940Z,14.88
2023-08-31T03:42:14.657Z,14.89
2023-08-31T03:44:49.469Z,14.85
2023-08-31T03:47:25.122Z,14.80
2023-08-31T03:49:55.899Z,14.81
2023-08-31T03:52:24.833Z,14.81
2023-08-31T03:54:54.176Z,14.80
2023-08-31T03:57:26.825Z,14.87
2023-08-31T04:00:06.190Z,14.91
2023-08-31T04:05:47.840Z,14.85
2023-08-31T04:08:16.330Z,14.84
2023-08-31T04:10:46.518Z,14.83
2023-08-31T04:13:29.928Z,14.78
2023-08-31T04:16:06.794Z,14.76
2023-08-31T04:18:39.981Z,14.74
2023-08-31T04:21:10.923Z,14.79
2023-08-31T04:23:42.888Z,14.79
2023-08-31T04:26:16.326Z,14.77
2023-08-31T04:31:37.629Z,14.77
2023-08-31T04:34:06.974Z,14.74
2023-08-31T04:36:39.124Z,14.62
2023-08-31T04:39:09.409Z,14.71
2023-08-31T04:41:40.797Z,14.78
2023-08-31T04:44:12.451Z,14.77
2023-08-31T04:46:43.369Z,14.73
2023-08-31T04:49:15.382Z,14.78
2023-08-31T04:51:49.386Z,14.69
2023-08-31T04:54:23.332Z,14.71
2023-08-31T04:56:54.501Z,14.84
2023-08-31T04:59:23.322Z,14.75
2023-08-31T05:01:55.662Z,14.85
2023-08-31T05:04:32.982Z,14.87
2023-08-31T05:07:02.048Z,14.81
2023-08-31T05:09:38.642Z,14.87
2023-08-31T05:12:10.898Z,14.84
2023-08-31T05:14:47.456Z,14.79
2023-08-31T05:17:23.042Z,14.93
2023-08-31T05:20:01.153Z,14.97
2023-08-31T05:22:33.014Z,15.05
2023-08-31T05:25:05.704Z,15.01
2023-08-31T05:27:36.943Z,15.09
2023-08-31T05:32:57.164Z,15.03
2023-08-31T05:35:29.277Z,15.01
2023-08-31T05:38:01.998Z,15.11
2023-08-31T05:40:33.155Z,15.18
2023-08-31T05:43:14.050Z,15.16
2023-08-31T05:45:43.629Z,15.21
2023-08-31T05:48:17.917Z,15.28
2023-08-31T05:50:56.040Z,15.32
2023-08-31T05:53:26.695Z,15.30
2023-08-31T05:56:05.847Z,15.23
2023-08-31T05:58:50.126Z,15.28
2023-08-31T06:01:21.205Z,15.60
2023-08-31T06:03:54.147Z,15.76
2023-08-31T06:06:25.289Z,15.62
2023-08-31T06:11:42.951Z,15.89
2023-08-31T06:14:21.918Z,15.84
2023-08-31T06:16:55.852Z,15.77
2023-08-31T06:19:28.669Z,15.85
2023-08-31T06:21:57.613Z,15.88
2023-08-31T06:24:26.930Z,15.83
2023-08-31T06:26:57.910Z,15.75
2023-08-31T06:29:31.914Z,15.65
2023-08-31T06:32:07.570Z,15.68
2023-08-31T06:34:51.276Z,15.62
2023-08-31T06:37:21.780Z,15.82
2023-08-31T06:39:51.858Z,16.01
2023-08-31T06:42:23.416Z,16.19
2023-08-31T06:44:58.813Z,16.41
2023-08-31T06:47:35.153Z,16.36
2023-08-31T06:50:05.165Z,16.50
2023-08-31T06:52:33.418Z,16.41
2023-08-31T06:55:03.080Z,16.29
2023-08-31T06:57:33.923Z,16.35
2023-08-31T07:02:53.100Z,16.35
2023-08-31T07:05:27.139Z,16.60
2023-08-31T07:07:59.794Z,16.65
2023-08-31T07:10:32.788Z,16.62
2023-08-31T07:16:02.956Z,16.43
2023-08-31T07:18:38.786Z,16.33
2023-08-31T07:21:11.924Z,16.28
2023-08-31T07:23:47.867Z,16.57
2023-08-31T07:26:21.011Z,16.83
2023-08-31T07:28:52.580Z,16.87
2023-08-31T07:31:26.973Z,16.69
2023-08-31T07:34:12.084Z,16.55
2023-08-31T07:36:51.473Z,16.65
2023-08-31T07:39:22.432Z,16.83
2023-08-31T07:41:51.698Z,17.00
2023-08-31T07:44:31.091Z,17.34
2023-08-31T07:46:59.541Z,17.39
2023-08-31T07:49:30.769Z,17.28
2023-08-31T07:51:59.077Z,17.36
2023-08-31T07:54:34.940Z,17.43
2023-08-31T07:57:11.826Z,17.41
2023-08-31T07:59:54.282Z,17.27
2023-08-31T08:02:35.873Z,17.32
2023-08-31T08:05:24.051Z,17.45
2023-08-31T08:07:53.362Z,17.33
2023-08-31T08:10:21.088Z,17.34
2023-08-31T08:12:59.174Z,17.52
2023-08-31T08:15:30.341Z,17.47
2023-08-31T08:18:01.874Z,17.52
2023-08-31T08:20:48.308Z,17.52
2023-08-31T08:23:18.579Z,17.24
2023-08-31T08:25:51.335Z,17.32
2023-08-31T08:28:21.806Z,17.41
2023-08-31T08:31:10.341Z,17.40
2023-08-31T08:33:49.890Z,17.52
2023-08-31T08:36:23.439Z,17.65
2023-08-31T08:39:01.490Z,17.83
2023-08-31T08:41:36.607Z,17.85
2023-08-31T08:44:22.138Z,17.72
2023-08-31T08:46:57.087Z,17.71
2023-08-31T08:49:28.097Z,17.62
2023-08-31T08:52:01.107Z,17.49
2023-08-31T08:54:32.808Z,17.76
2023-08-31T08:57:02.128Z,17.89
2023-08-31T08:59:45.004Z,18.13
2023-08-31T09:02:15.859Z,18.47
2023-08-31T09:04:46.514Z,18.56
2023-08-31T09:07:24.997Z,18.72
2023-08-31T09:10:00.805Z,18.79
2023-08-31T09:12:31.211Z,18.84
2023-08-31T09:15:05.052Z,18.98
2023-08-31T09:17:48.214Z,18.95
2023-08-31T09:20:20.323Z,19.00
2023-08-31T09:22:52.039Z,19.27
2023-08-31T09:25:22.559Z,19.48
2023-08-31T09:27:53.486Z,19.27
2023-08-31T09:30:23.365Z,19.32
2023-08-31T09:33:01.163Z,19.36
2023-08-31T09:35:31.699Z,19.29
2023-08-31T09:38:05.925Z,19.21
2023-08-31T09:40:46.634Z,19.29
2023-08-31T09:43:23.737Z,19.05
2023-08-31T09:45:58.292Z,18.89
2023-08-31T09:48:29.339Z,19.08
2023-08-31T09:51:08.073Z,19.22
2023-08-31T09:53:38.737Z,19.19
2023-08-31T09:56:18.031Z,19.35
2023-08-31T09:58:49.937Z,19.38
2023-08-31T10:01:29.476Z,19.54
2023-08-31T10:04:01.503Z,19.46
2023-08-31T10:06:30.037Z,19.40
2023-08-31T10:08:59.754Z,19.26
2023-08-31T10:11:35.284Z,19.15
2023-08-31T10:14:06.560Z,19.15
2023-08-31T10:16:42.387Z,19.52
2023-08-31T10:19:14.442Z,19.90
2023-08-31T10:21:56.943Z,20.38
2023-08-31T10:25:15.881Z,20.78
2023-08-31T10:27:58.069Z,20.69
2023-08-31T10:30:33.157Z,20.49
2023-08-31T10:33:27.355Z,20.71
2023-08-31T10:36:03.599Z,21.07
2023-08-31T10:38:41.532Z,21.27
2023-08-31T10:41:13.956Z,21.16
2023-08-31T10:44:04.258Z,21.32
2023-08-31T10:46:47.414Z,21.13
2023-08-31T10:49:20.680Z,21.63
2023-08-31T10:52:32.677Z,21.99
2023-08-31T10:55:08.934Z,21.89
2023-08-31T10:57:38.182Z,22.04
2023-08-31T11:00:12.152Z,22.42
2023-08-31T11:02:49.389Z,22.18
2023-08-31T11:05:31.997Z,21.92
2023-08-31T11:08:03.841Z,21.78
2023-08-31T11:10:36.612Z,21.34
2023-08-31T11:13:09.678Z,21.45
2023-08-31T11:15:40.750Z,21.99
2023-08-31T11:18:18.860Z,22.37
2023-08-31T11:23:54.494Z,22.57
2023-08-31T11:26:33.951Z,22.26
2023-08-31T11:29:13.754Z,22.53
2023-08-31T11:31:47.435Z,22.43
2023-08-31T11:37:04.811Z,22.69
2023-08-31T11:39:36.370Z,22.82
2023-08-31T11:42:12.542Z,23.06
2023-08-31T11:44:52.426Z,23.21
2023-08-31T11:47:36.511Z,23.12
2023-08-31T11:50:14.987Z,23.05
2023-08-31T11:52:49.777Z,23.03
2023-08-31T11:55:23.177Z,23.54
2023-08-31T11:57:57.594Z,23.23
2023-08-31T12:00:34.927Z,22.90
2023-08-31T12:03:15.467Z,22.68
2023-08-31T12:05:51.534Z,22.68
2023-08-31T12:08:31.553Z,22.45
2023-08-31T12:11:04.044Z,22.27
2023-08-31T12:13:35.557Z,22.96
2023-08-31T12:16:06.679Z,22.95
2023-08-31T12:18:40.083Z,22.51
2023-08-31T12:21:15.549Z,22.51
2023-08-31T12:23:46.109Z,22.77
2023-08-31T12:26:21.055Z,23.25
2023-08-31T12:28:48.978Z,23.13
2023-08-31T12:31:21.150Z,23.06
2023-08-31T12:33:51.755Z,22.96
2023-08-31T12:36:36.207Z,23.06
2023-08-31T12:39:13.376Z,23.19
2023-08-31T12:41:45.447Z,22.94
2023-08-31T12:44:19.386Z,23.02
2023-08-31T12:46:51.553Z,22.82
2023-08-31T12:49:32.084Z,23.11
2023-08-31T12:52:00.013Z,23.74
2023-08-31T12:54:31.167Z,23.94
2023-08-31T12:57:06.083Z,24.20
2023-08-31T12:59:36.199Z,24.18
2023-08-31T13:02:08.745Z,24.05
2023-08-31T13:04:40.941Z,23.76
2023-08-31T13:09:57.444Z,23.56
2023-08-31T13:12:31.929Z,23.68
2023-08-31T13:15:05.518Z,23.48
2023-08-31T13:17:42.684Z,23.63
2023-08-31T13:23:09.053Z,23.46
2023-08-31T13:25:43.063Z,23.48
2023-08-31T13:28:14.331Z,23.04
2023-08-31T13:30:45.412Z,22.96
2023-08-31T13:33:18.902Z,22.96
2023-08-31T13:35:49.640Z,23.09
2023-08-31T13:38:19.998Z,23.04
2023-08-31T13:40:56.434Z,22.82
2023-08-31T13:43:27.822Z,22.81
2023-08-31T13:46:01.283Z,23.30
2023-08-31T13:48:33.846Z,23.50
2023-08-31T13:51:04.790Z,23.47
2023-08-31T13:53:43.851Z,23.41
2023-08-31T13:56:14.507Z,23.60
2023-08-31T13:58:44.832Z,23.52
2023-08-31T14:01:15.530Z,23.50
2023-08-31T14:03:52.530Z,23.51
2023-08-31T14:06:31.320Z,23.58
2023-08-31T14:09:07.025Z,23.79
2023-08-31T14:11:36.972Z,23.79
2023-08-31T14:14:14.530Z,23.84
2023-08-31T14:16:53.499Z,23.78
2023-08-31T14:19:32.952Z,23.70
2023-08-31T14:22:04.643Z,23.57
2023-08-31T14:24:35.269Z,23.43
2023-08-31T14:27:07.997Z,23.29
2023-08-31T14:29:39.543Z,23.16
2023-08-31T14:32:15.975Z,23.14
2023-08-31T14:34:52.139Z,23.16
2023-08-31T14:37:28.722Z,23.38
2023-08-31T14:40:00.129Z,23.30
2023-08-31T14:42:31.055Z,23.28
2023-08-31T14:45:08.826Z,23.35
2023-08-31T14:47:38.698Z,23.37
2023-08-31T14:50:14.059Z,23.01
2023-08-31T14:52:48.335Z,22.73
2023-08-31T14:55:28.421Z,22.56
2023-08-31T14:57:59.290Z,22.67
2023-08-31T15:00:32.924Z,22.59
2023-08-31T15:03:06.303Z,22.88
2023-08-31T15:05:38.169Z,22.71
2023-08-31T15:08:11.365Z,22.54
2023-08-31T15:10:48.727Z,22.36
2023-08-31T15:13:19.654Z,22.16
2023-08-31T15:15:51.859Z,22.03
2023-08-31T15:18:38.248Z,21.81
2023-08-31T15:21:07.710Z,21.66
2023-08-31T15:23:45.170Z,21.51
2023-08-31T15:26:19.480Z,21.41
2023-08-31T15:28:47.773Z,21.36
2023-08-31T15:31:32.774Z,21.23
2023-08-31T15:34:02.884Z,21.14
2023-08-31T15:36:33.826Z,20.87
2023-08-31T15:39:04.179Z,20.95
2023-08-31T15:41:35.429Z,20.86
2023-08-31T15:44:07.405Z,20.91
2023-08-31T15:46:56.030Z,20.85
2023-08-31T15:49:30.309Z,20.69
2023-08-31T15:52:03.838Z,20.73
2023-08-31T15:54:32.585Z,20.61
2023-08-31T15:57:25.608Z,20.64
2023-08-31T15:59:55.471Z,20.65
2023-08-31T16:02:25.028Z,20.52
2023-08-31T16:05:00.331Z,20.36
2023-08-31T16:07:32.817Z,20.27
2023-08-31T16:12:53.424Z,20.00
2023-08-31T16:15:31.508Z,19.92
2023-08-31T16:18:05.434Z,19.80
2023-08-31T16:20:36.222Z,19.73
2023-08-31T16:23:06.068Z,19.66
2023-08-31T16:25:35.365Z,19.50
2023-08-31T16:28:07.135Z,19.46
2023-08-31T16:30:49.342Z,19.53
2023-08-31T16:33:21.973Z,19.48
2023-08-31T16:35:52.311Z,19.41
2023-08-31T16:38:24.557Z,19.29
2023-08-31T16:40:55.533Z,19.34
2023-08-31T16:43:30.320Z,19.18
2023-08-31T16:46:22.497Z,19.18
2023-08-31T16:48:56.929Z,18.88
2023-08-31T16:51:32.941Z,19.18
2023-08-31T16:54:07.934Z,19.22
2023-08-31T16:56:38.895Z,19.09
2023-08-31T16:59:09.336Z,19.03
2023-08-31T17:01:37.431Z,19.08
2023-08-31T17:06:52.152Z,19.03
2023-08-31T17:09:29.637Z,18.97
2023-08-31T17:12:14.497Z,18.95
2023-08-31T17:14:47.246Z,18.87
2023-08-31T17:17:29.538Z,18.88
2023-08-31T17:20:03.045Z,18.84
2023-08-31T17:22:33.338Z,18.77
2023-08-31T17:25:05.057Z,18.70
2023-08-31T17:27:36.059Z,18.68
2023-08-31T17:30:18.699Z,18.65
2023-08-31T17:33:03.698Z,18.61
2023-08-31T17:35:34.711Z,18.65
2023-08-31T17:38:07.792Z,18.54
2023-08-31T17:40:39.618Z,18.44
2023-08-31T17:43:08.073Z,18.64
2023-08-31T17:45:43.074Z,18.53
2023-08-31T17:48:18.753Z,18.63
2023-08-31T17:50:50.801Z,18.67
2023-08-31T17:56:05.620Z,18.59
2023-08-31T17:58:36.285Z,18.11
2023-08-31T18:01:06.181Z,18.11
2023-08-31T18:03:37.350Z,18.10
2023-08-31T18:06:24.434Z,18.25
2023-08-31T18:09:01.509Z,18.30
2023-08-31T18:11:33.751Z,18.26
2023-08-31T18:14:09.990Z,18.13
2023-08-31T18:16:55.246Z,18.12
2023-08-31T18:19:34.628Z,17.95
2023-08-31T18:22:11.032Z,17.99
2023-08-31T18:24:41.141Z,18.01
2023-08-31T18:27:14.367Z,17.88
2023-08-31T18:29:50.447Z,17.85
2023-08-31T18:32:21.298Z,17.71
2023-08-31T18:34:58.246Z,17.52
2023-08-31T18:37:34.461Z,17.80
2023-08-31T18:40:06.664Z,17.80
2023-08-31T18:42:38.453Z,17.31
2023-08-31T18:45:29.612Z,17.19
2023-08-31T18:48:00.226Z,17.24
2023-08-31T18:50:31.040Z,17.25
2023-08-31T18:53:03.683Z,17.34
2023-08-31T18:55:36.390Z,17.42
2023-08-31T18:58:11.386Z,17.34
2023-08-31T19:00:44.566Z,17.30
2023-08-31T19:03:17.129Z,17.34
2023-08-31T19:05:47.276Z,17.26
2023-08-31T19:08:28.940Z,17.25
2023-08-31T19:10:58.449Z,17.15
2023-08-31T19:13:26.361Z,17.11
2023-08-31T19:15:59.203Z,17.10
2023-08-31T19:18:36.232Z,17.19
2023-08-31T19:21:18.270Z,17.25
2023-08-31T19:23:59.532Z,17.21
2023-08-31T19:26:43.788Z,17.15
2023-08-31T19:29:17.268Z,17.11
2023-08-31T19:31:47.882Z,16.94
2023-08-31T19:34:18.158Z,17.00
2023-08-31T19:36:48.158Z,17.02
2023-08-31T19:39:21.909Z,16.93
2023-08-31T19:41:52.412Z,16.97
2023-08-31T19:44:26.832Z,16.88
2023-08-31T19:46:59.209Z,16.88
2023-08-31T19:49:44.707Z,16.90
2023-08-31T19:52:15.977Z,16.80
2023-08-31T19:54:46.404Z,16.77
2023-08-31T19:57:18.802Z,16.73
2023-08-31T19:59:51.174Z,16.68
2023-08-31T20:02:23.347Z,16.61
2023-08-31T20:04:53.528Z,16.65
2023-08-31T20:07:25.256Z,16.69
2023-08-31T20:12:54.243Z,16.64
2023-08-31T20:15:36.894Z,16.49
2023-08-31T20:18:08.331Z,16.57
2023-08-31T20:20:39.341Z,16.59
2023-08-31T20:23:09.624Z,16.50
2023-08-31T20:25:40.422Z,16.48
2023-08-31T20:28:22.886Z,16.53
2023-08-31T20:30:54.444Z,16.55
2023-08-31T20:33:23.522Z,16.46
2023-08-31T20:36:14.030Z,16.29
2023-08-31T20:38:55.802Z,16.31
2023-08-31T20:41:31.082Z,16.38
2023-08-31T20:44:06.134Z,16.25
2023-08-31T20:46:45.970Z,16.15
2023-08-31T20:49:18.816Z,16.22
2023-08-31T20:51:52.277Z,16.27
2023-08-31T20:54:23.480Z,16.23
2023-08-31T20:56:53.823Z,16.23
2023-08-31T20:59:35.789Z,16.13
2023-08-31T21:02:11.971Z,16.12
2023-08-31T21:04:41.731Z,16.03
2023-08-31T21:07:10.442Z,16.01
2023-08-31T21:09:45.613Z,15.92
2023-08-31T21:12:16.593Z,15.91
2023-08-31T21:14:44.376Z,16.02
2023-08-31T21:17:15.167Z,16.14
2023-08-31T21:19:45.821Z,16.15
2023-08-31T21:22:30.322Z,16.02
2023-08-31T21:25:04.421Z,16.02
2023-08-31T21:27:37.708Z,16.03
2023-08-31T21:30:09.119Z,15.91
2023-08-31T21:32:50.097Z,15.91
2023-08-31T21:35:20.623Z,15.79
2023-08-31T21:37:51.735Z,15.93
2023-08-31T21:40:21.982Z,15.95
2023-08-31T21:42:55.227Z,16.00
2023-08-31T21:45:25.887Z,15.96
2023-08-31T21:47:59.713Z,15.99
2023-08-31T21:50:33.922Z,16.01
2023-08-31T21:53:03.134Z,16.12
2023-08-31T21:55:33.488Z,16.07
2023-08-31T21:58:07.680Z,16.13
2023-08-31T22:00:36.524Z,16.04
2023-08-31T22:03:11.014Z,16.07
2023-08-31T22:05:43.008Z,16.11
2023-08-31T22:08:13.192Z,16.09
2023-08-31T22:10:45.055Z,16.03
2023-08-31T22:13:16.185Z,16.03
2023-08-31T22:15:58.364Z,15.97
2023-08-31T22:18:35.770Z,15.95
2023-08-31T22:23:56.969Z,15.61
2023-08-31T22:26:26.984Z,15.93
2023-08-31T22:28:58.449Z,15.97
2023-08-31T22:31:40.060Z,15.91
2023-08-31T22:34:17.447Z,15.96
2023-08-31T22:37:03.396Z,15.96
2023-08-31T22:39:36.345Z,15.98
2023-08-31T22:42:23.508Z,15.97
2023-08-31T22:45:00.182Z,15.95
2023-08-31T22:47:41.846Z,15.95
2023-08-31T22:50:28.092Z,15.95
2023-08-31T22:52:58.794Z,16.01
2023-08-31T22:55:40.486Z,15.92
2023-08-31T22:58:10.466Z,15.92
2023-08-31T23:00:38.544Z,15.93
2023-08-31T23:03:08.580Z,15.96
2023-08-31T23:05:37.227Z,15.96
2023-08-31T23:08:17.667Z,15.91
2023-08-31T23:10:51.326Z,15.95
2023-08-31T23:13:22.493Z,16.01
2023-08-31T23:15:53.096Z,16.01
2023-08-31T23:18:22.322Z,15.88
2023-08-31T23:20:53.375Z,15.85
2023-08-31T23:23:23.504Z,15.92
2023-08-31T23:25:59.808Z,15.93
2023-08-31T23:28:48.268Z,15.90
2023-08-31T23:31:22.325Z,16.00
2023-08-31T23:33:56.834Z,15.86
2023-08-31T23:36:36.777Z,15.82
2023-08-31T23:39:10.838Z,15.86
2023-08-31T23:41:43.416Z,15.90
2023-08-31T23:44:18.548Z,15.77
2023-08-31T23:46:52.502Z,15.68
2023-08-31T23:49:27.224Z,15.59
2023-08-31T23:52:01.408Z,15.41
2023-08-31T23:54:37.927Z,15.46
2023-08-31T23:57:08.764Z,15.67
2023-08-31T23:59:39.593Z,15.52
